Montaigu De Quercy Valprionde

FR-0931 · Tarn-et-Garonne, Occitanie, Frankrijk

METAR historie FR-0931 · Montaigu De Quercy Valprionde

Hieronder zie je METAR's van de afgelopen dagen. Kies een jaar om door oudere METAR's te bladeren, vanaf het jaar 2007.

20 juni 2024

Tijd Code Weer Temp. Zicht Plafond Wind METAR/SPECI
09:30
I
16 °C 7 km 800 ft 270° 270° 7 kt METAR LFBA 200730Z AUTO 27007KT 220V300 7000 RA BKN008/// BKN031/// BKN052/// ///CB 16/16 Q1016 TEMPO 3000 RA
09:30
I
16 °C 7 km 800 ft 270° 270° 7 kt METAR LFBA 200730Z AUTO 27007KT 220V300 7000 RA BKN008/// BKN031/// BKN052/// //////CB 16/16 Q1016 TEMPO 3000 RA
09:00
M
16 °C 7 km 3.000 ft 290° 290° 6 kt METAR LFBA 200700Z AUTO 29006KT 230V310 7000 RA SCT010/// BKN030/// BKN044/// ///CB 16/16 Q1015 TEMPO 3000 RA OVC008
08:30
I
16 °C 4,1 km 5.400 ft 270° 270° 5 kt METAR LFBA 200630Z AUTO 27005KT 240V310 4100 +RA BR SCT047/// BKN054/// BKN066/// ///CB 16/16 Q1016 TEMPO OVC008
08:00
M
16 °C 6 km 8.600 ft 280° 280° 3 kt METAR LFBA 200600Z AUTO 28003KT 6000 RA FEW008/// SCT060/// OVC086/// //////CB 16/16 Q1015 TEMPO 3000 RA OVC008
07:30
M
16 °C 10 km+ 2.500 ft 300° 300° 6 kt METAR LFBA 200530Z AUTO 30006KT 9999 SCT006/// BKN025/// OVC084/// ///TCU 16/16 Q1015 BECMG FEW010 SCT020 BKN040 FEW060CB
07:00
I
16 °C 10 km+ 600 ft 300° 300° 7 kt METAR LFBA 200500Z AUTO 30007KT 9999 BKN006 BKN026 BKN094 16/16 Q1015 BECMG SCT020 BKN040 FEW060CB
06:30
V
16 °C 10 km+ 8.800 ft 290° 290° 5 kt METAR LFBA 200430Z AUTO 29005KT 9999 SCT027/// SCT062/// BKN088/// //////CB 16/16 Q1016 TEMPO BKN008 BKN030
06:00
V
16 °C 9 km 8.600 ft 250° 250° 5 kt METAR LFBA 200400Z AUTO 25005KT 210V290 9000 -RA FEW031/// SCT056/// BKN086/// //////CB 16/16 Q1016 NOSIG
05:30
V
16 °C 10 km+ 8.600 ft 290° 290° 4 kt METAR LFBA 200330Z AUTO 29004KT 9999 -RA FEW031/// OVC086/// //////CB 16/16 Q1016 NOSIG
05:00
V
16 °C 10 km+ 3.100 ft 290° 290° 6 kt METAR LFBA 200300Z AUTO 29006KT 9999 FEW011/// BKN031/// BKN042/// //////TCU 16/15 Q1016
04:30
V
16 °C 10 km+ - 290° 290° 6 kt METAR LFBA 200230Z AUTO 29006KT 9999 -RA //////CB 16/15 Q1016
04:00
V
16 °C 10 km+ 9.400 ft 290° 290° 6 kt METAR LFBA 200200Z AUTO 29006KT 9999 -RA FEW017/// OVC094/// ///TCU 16/16 Q1016
03:30
V
17 °C 10 km+ 4.500 ft 270° 270° 6 kt METAR LFBA 200130Z AUTO 27006KT 9999 -RA SCT024/// BKN045/// BKN066/// ///CB 17/16 Q1016
03:00
M
17 °C 5 km 4.400 ft 280° 280° 6 kt METAR LFBA 200100Z AUTO 28006KT 250V320 5000 +TSRA BR SCT025/// SCT035/// BKN044/// //////CB 17/16 Q1016
02:30
I
18 °C 4,3 km 1.800 ft 290° 290° 9 kt METAR LFBA 200030Z AUTO 29009KT 9000 4300 +RA BKN018/// OVC042/// ///CB 18/16 Q1016
02:00
M
19 °C 10 km+ 1.600 ft 290° 290° 11 kt METAR LFBA 200000Z AUTO 29011KT 9999 -RA BKN016/// OVC052/// ///CB 19/15 Q1016
01:30
V
19 °C 10 km+ 5.000 ft 300° 300° 7 kt METAR LFBA 192330Z AUTO 30007KT 9999 SCT035/// OVC050/// //////CB 19/16 Q1016
01:00
V
19 °C 10 km+ 3.200 ft 300° 300° 8 kt METAR LFBA 192300Z AUTO 30008KT 9999 BKN032/// OVC058/// ///CB 19/16 Q1016
00:30
V
20 °C 10 km+ 3.400 ft 300° 300° 8 kt METAR LFBA 192230Z AUTO 30008KT 9999 SCT023/// BKN034/// BKN052/// //////CB 20/17 Q1016
00:00
V
20 °C 10 km+ 19.000 ft 290° 290° 8 kt METAR LFBA 192200Z AUTO 29008KT 9999 FEW014 SCT170 BKN190 20/17 Q1015

19 juni 2024

Tijd Code Weer Temp. Zicht Plafond Wind METAR/SPECI
23:30
V
20 °C 10 km+ - 290° 290° 5 kt METAR LFBA 192130Z AUTO 29005KT 9999 SCT024 20/17 Q1015
23:00
V
20 °C 10 km+ - 290° 290° 6 kt METAR LFBA 192100Z AUTO 29006KT CAVOK 20/17 Q1015
22:30
V
20 °C 10 km+ - 290° 290° 7 kt METAR LFBA 192030Z AUTO 29007KT CAVOK 20/17 Q1014
22:00
I
21 °C 4,1 km - 280° 280° 4 kt METAR LFBA 192000Z AUTO 28004KT 9999 4100 //////CB 21/17 Q1014 TEMPO 4000 TSRA
21:30
V
22 °C 10 km+ - 290° 290° 5 kt METAR LFBA 191930Z AUTO 29005KT 9999 //////CB 22/17 Q1014 TEMPO 4000 TSRA
21:00
V
23 °C 10 km+ - 270° 270° 3 kt METAR LFBA 191900Z AUTO 27003KT CAVOK 23/17 Q1014 TEMPO 4000 TSRA SCT050CB
20:30
V
24 °C 10 km+ - 280° 280° 6 kt METAR LFBA 191830Z AUTO 28006KT CAVOK 24/17 Q1014 TEMPO 4000 TSRA SCT050CB
20:00
V
24 °C 10 km+ - 310° 310° 7 kt METAR LFBA 191800Z AUTO 31007KT CAVOK 24/17 Q1013 TEMPO 4000 TSRA SCT050CB
19:30
V
23 °C 10 km+ 5.200 ft 310° 310° 6 kt METAR LFBA 191730Z AUTO 31006KT 9999 FEW035 BKN052 23/18 Q1013 TEMPO 4000 TSRA SCT050CB
19:00
V
24 °C 10 km+ 5.200 ft 290° 290° 5 kt METAR LFBA 191700Z AUTO 29005KT 9999 SCT030 SCT038 BKN052 24/19 Q1013 TEMPO 4000 TSRA SCT050CB
18:30
V
23 °C 10 km+ 6.800 ft Var Var 3 kt METAR LFBA 191630Z AUTO VRB03KT 9999 SCT027 SCT054 BKN068 23/19 Q1013 TEMPO 4000 TSRA SCT050CB
18:00
V
22 °C 10 km+ 5.400 ft 360° 360° 0 kt METAR LFBA 191600Z AUTO 00000KT 9999 FEW028/// BKN054/// BKN070/// //////CB 22/19 Q1013 TEMPO 4000 TSRA
17:30
V
22 °C 10 km+ 4.000 ft 300° 300° 4 kt METAR LFBA 191530Z AUTO 30004KT 250V330 9999 -RA FEW021/// SCT028/// BKN040/// ///CB 22/19 Q1014 TEMPO 4000 TSRA
17:00
V
23 °C 10 km+ 3.700 ft 340° 340° 6 kt METAR LFBA 191500Z AUTO 34006KT 9999 FEW030 BKN037 BKN044 23/18 Q1013 TEMPO 4000 TSRA SCT050CB
16:30
V
25 °C 10 km+ 3.300 ft 300° 300° 7 kt METAR LFBA 191430Z AUTO 30007KT 280V340 9999 SCT026/// BKN033/// BKN054/// ///CB 25/18 Q1014 TEMPO 4000 TSRA
16:00
V
24 °C 10 km+ 3.800 ft 290° 290° 4 kt METAR LFBA 191400Z AUTO 29004KT 240V330 9999 FEW026/// BKN038/// BKN066/// ///CB 24/19 Q1014 TEMPO 4000 TSRA
15:30
V
24 °C 10 km+ 6.600 ft 260° 260° 5 kt METAR LFBA 191330Z AUTO 26005KT 230V300 9999 FEW024/// OVC066/// ///CB 24/18 Q1014 TEMPO 4000 TSRA
15:00
V
24 °C 10 km+ 3.500 ft 290° 290° 6 kt METAR LFBA 191300Z AUTO 29006KT 240V340 9999 FEW023 SCT029 BKN035 24/18 Q1014 TEMPO SCT035TCU
14:30
M
23 °C 10 km+ 2.300 ft 300° 300° 5 kt METAR LFBA 191230Z AUTO 30005KT 260V340 9999 BKN023/// OVC030/// ///CB 23/19 Q1014 NOSIG
14:00
M
23 °C 10 km+ 2.200 ft 290° 290° 6 kt METAR LFBA 191200Z AUTO 29006KT 250V320 9999 BKN022/// OVC028/// //////CB 23/18 Q1014 TEMPO SCT030 BKN045
13:30
M
22 °C 10 km+ 1.900 ft 300° 300° 7 kt METAR LFBA 191130Z AUTO 30007KT 9999 BKN019 OVC024 22/18 Q1014 TEMPO SCT035TCU
13:00
M
22 °C 10 km+ 2.000 ft 280° 280° 5 kt METAR LFBA 191100Z AUTO 28005KT 250V310 9999 SCT013 OVC020 22/18 Q1014 NOSIG
12:30
M
21 °C 10 km+ 1.400 ft 250° 250° 3 kt METAR LFBA 191030Z AUTO 25003KT 230V290 9999 OVC014 21/18 Q1014 BECMG SCT030 BKN045
12:00
M
21 °C 10 km+ 1.100 ft 250° 250° 6 kt METAR LFBA 191000Z AUTO 25006KT 220V290 9999 BKN011 OVC017 21/18 Q1014 BECMG SCT030 BKN045
11:30
M
21 °C 10 km+ 1.200 ft Var Var 3 kt METAR LFBA 190930Z AUTO VRB03KT 9999 OVC012 21/18 Q1013 BECMG SCT030 BKN045
11:00
M
21 °C 10 km+ 1.100 ft 270° 270° 3 kt METAR LFBA 190900Z AUTO 27003KT 210V300 9999 OVC011 21/18 Q1013 BECMG SCT030 BKN045
10:30
M
21 °C 10 km+ 1.100 ft 270° 270° 3 kt METAR LFBA 190830Z AUTO 27003KT 190V320 9999 OVC011 21/18 Q1013 BECMG BKN018
10:00
M
21 °C 10 km+ 1.000 ft 280° 280° 4 kt METAR LFBA 190800Z AUTO 28004KT 230V310 9999 OVC010 21/18 Q1013 BECMG BKN018
09:30
M
20 °C 10 km+ 1.200 ft Var Var 3 kt METAR LFBA 190730Z AUTO VRB03KT 9999 FEW007 BKN012 BKN064 20/18 Q1012 BECMG BKN018
09:00
I
19 °C 10 km+ 800 ft 300° 300° 6 kt METAR LFBA 190700Z AUTO 30006KT 9999 OVC008 19/18 Q1012 BECMG BKN018
08:30
M
19 °C 10 km+ 1.000 ft 280° 280° 5 kt METAR LFBA 190630Z AUTO 28005KT 250V310 9999 OVC010 19/18 Q1012 BECMG BKN018
08:00
M
19 °C 10 km+ 1.100 ft 280° 280° 4 kt METAR LFBA 190600Z AUTO 28004KT 9999 OVC011/// //////CB 19/18 Q1012 TEMPO BKN007
07:30
M
18 °C 10 km+ 1.100 ft 280° 280° 4 kt METAR LFBA 190530Z AUTO 28004KT 9999 BKN011/// OVC047/// ///CB 18/18 Q1012 BECMG BKN018
07:00
V
18 °C 10 km+ 4.600 ft 290° 290° 3 kt METAR LFBA 190500Z AUTO 29003KT 9999 OVC046/// ///CB 18/17 Q1012 TEMPO BKN007
06:30
V
18 °C 10 km+ 4.600 ft Var Var 3 kt METAR LFBA 190430Z AUTO VRB03KT 9999 SCT012 BKN046 18/17 Q1011 TEMPO BKN007
06:00
M
19 °C 10 km+ 1.200 ft 280° 280° 5 kt METAR LFBA 190400Z AUTO 28005KT 9999 BKN012 19/18 Q1011 TEMPO BKN007
05:30
V
19 °C 10 km+ 4.200 ft 270° 270° 4 kt METAR LFBA 190330Z AUTO 27004KT 230V300 9999 FEW014/// BKN042/// OVC049/// ///CB 19/18 Q1011 TEMPO BKN007
05:00
V
19 °C 9 km 4.100 ft Var Var 3 kt METAR LFBA 190300Z AUTO VRB03KT 9000 FEW011/// BKN041/// BKN062/// //////CB 19/18 Q1011
04:30
I
19 °C 3,3 km 3.800 ft 230° 230° 3 kt METAR LFBA 190230Z AUTO 23003KT 170V300 3300 +TSRA BR FEW028/// BKN038/// BKN046/// //////CB 19/18 Q1011
04:00
V
19 °C 10 km+ 3.700 ft Var Var 2 kt METAR LFBA 190200Z AUTO VRB02KT 9999 BKN037/// BKN047/// BKN060/// //////CB 19/18 Q1011
03:30
V
19 °C 10 km+ - 170° 170° 5 kt METAR LFBA 190130Z AUTO 17005KT 090V240 9999 RA VCTS ///CB 19/18 Q1010
03:00
V
19 °C 10 km+ 5.600 ft Var Var 3 kt METAR LFBA 190100Z AUTO VRB03KT 9999 FEW040/// BKN056/// BKN110/// //////CB 19/18 Q1011
02:30
V
19 °C 10 km+ 13.000 ft Var Var 2 kt METAR LFBA 190030Z AUTO VRB02KT 9999 FEW042 SCT052 BKN130 19/18 Q1011
02:00
V
19 °C 10 km+ - 200° 200° 2 kt METAR LFBA 190000Z AUTO 20002KT CAVOK 19/18 Q1011
01:30
V
19 °C 10 km+ - 280° 280° 3 kt METAR LFBA 182330Z AUTO 28003KT CAVOK 19/18 Q1011
01:00
V
19 °C 10 km+ - 300° 300° 6 kt METAR LFBA 182300Z AUTO 30006KT CAVOK 19/17 Q1012
00:30
V
19 °C 10 km+ - 120° 120° 7 kt METAR LFBA 182230Z AUTO 12007KT 9999 ///TCU 19/17 Q1011
00:00
V
20 °C 10 km+ - 140° 140° 9 kt METAR LFBA 182200Z AUTO 14009KT 9999 //////CB 20/17 Q1011

18 juni 2024

Tijd Code Weer Temp. Zicht Plafond Wind METAR/SPECI
23:30
V
20 °C 10 km+ - 240° 240° 7 kt METAR LFBA 182130Z AUTO 24007KT 160V280 9999 -RA //////CB 20/17 Q1011
23:00
V
20 °C 10 km+ - 100° 100° 5 kt METAR LFBA 182100Z AUTO 10005KT 050V180 9999 //////CB 20/16 Q1010
22:30
V
20 °C 10 km+ 12.000 ft 030° 030° 8 kt METAR LFBA 182030Z AUTO 03008KT 9999 FEW042/// BKN120/// //////TCU 20/17 Q1010
22:00
V
21 °C 10 km+ - 350° 350° 3 kt METAR LFBA 182000Z AUTO 35003KT 320V030 9999 RA ///CB 21/18 Q1011 TEMPO 4000 TSRA
21:30
V
22 °C 9 km - 280° 280° 10 kt METAR LFBA 181930Z AUTO 28010KT 9000 RA VCTS ///CB 22/19 Q1011 TEMPO 4000 TSRA
21:00
V
24 °C 10 km+ - 290° 290° 10 kt METAR LFBA 181900Z AUTO 29010KT 9999 -RA ///CB 24/18 Q1010 TEMPO 4000 TSRA
20:30
V
26 °C 10 km+ - 010° 010° 4 kt METAR LFBA 181830Z AUTO 01004KT 300V050 9999 ///CB 26/18 Q1009 TEMPO 4000 TSRA
20:00
V
26 °C 10 km+ - 020° 020° 7 kt METAR LFBA 181800Z AUTO 02007KT CAVOK 26/18 Q1008 TEMPO 32010KT 4000 TSRA BECMG SCT040 FEW060CB BKN120
19:30
V
27 °C 10 km+ - 020° 020° 6 kt METAR LFBA 181730Z AUTO 02006KT CAVOK 27/18 Q1008 TEMPO 32010KT 4000 TSRA BECMG SCT040 FEW060CB BKN120
19:00
V
28 °C 10 km+ - 060° 060° 4 kt METAR LFBA 181700Z AUTO 06004KT 040V100 CAVOK 28/17 Q1008 TEMPO 32020G30KT 2000 BECMG SCT040 FEW060CB BKN120
18:30
V
28 °C 10 km+ - 090° 090° 4 kt METAR LFBA 181630Z AUTO 09004KT CAVOK 28/18 Q1009 TEMPO 32020G30KT 2000 BECMG SCT040 FEW060CB BKN120
18:00
V
28 °C 10 km+ - 080° 080° 5 kt METAR LFBA 181600Z AUTO 08005KT 050V110 CAVOK 28/17 Q1009 TEMPO 32020G30KT 2000 BECMG SCT040 FEW060CB BKN120
17:30
V
28 °C 10 km+ - 080° 080° 4 kt METAR LFBA 181530Z AUTO 08004KT 050V120 CAVOK 28/17 Q1010 TEMPO 32020G30KT 2000 BECMG SCT040 FEW060CB BKN120
17:00
V
28 °C 10 km+ - 100° 100° 7 kt METAR LFBA 181500Z AUTO 10007KT 070V140 CAVOK 28/17 Q1010 BECMG SCT040 FEW060CB BKN120
16:30
V
28 °C 10 km+ - 090° 090° 5 kt METAR LFBA 181430Z AUTO 09005KT 040V140 CAVOK 28/17 Q1010 BECMG 32010KT SCT040 FEW060CB
16:00
V
26 °C 10 km+ - 050° 050° 4 kt METAR LFBA 181400Z AUTO 05004KT 010V100 9999 ///TCU 26/17 Q1011 BECMG SCT035 SCT130
15:30
V
26 °C 10 km+ - 110° 110° 4 kt METAR LFBA 181330Z AUTO 11004KT 070V150 CAVOK 26/18 Q1011 NOSIG
15:00
V
25 °C 10 km+ - 090° 090° 5 kt METAR LFBA 181300Z AUTO 09005KT 050V120 9999 ///TCU 25/17 Q1011 BECMG SCT035 SCT130
14:30
V
25 °C 10 km+ - 120° 120° 6 kt METAR LFBA 181230Z AUTO 12006KT 080V170 9999 FEW033 25/17 Q1011 NOSIG
14:00
V
25 °C 10 km+ - 120° 120° 8 kt METAR LFBA 181200Z AUTO 12008KT 090V160 9999 ///CB 25/17 Q1011 BECMG SCT035 SCT130
13:30
V
24 °C 10 km+ - 120° 120° 9 kt METAR LFBA 181130Z AUTO 12009KT 100V160 9999 FEW031/// ///TCU 24/17 Q1011 BECMG SCT020
13:00
M
25 °C 10 km+ 2.900 ft 160° 160° 7 kt METAR LFBA 181100Z AUTO 16007KT 120V200 9999 BKN029/// ///TCU 25/17 Q1012 BECMG SCT020
12:30
V
25 °C 10 km+ - 140° 140° 9 kt METAR LFBA 181030Z AUTO 14009KT 100V190 9999 SCT027 25/18 Q1012 NOSIG
12:00
M
24 °C 10 km+ 2.400 ft 150° 150° 8 kt METAR LFBA 181000Z AUTO 15008KT 110V190 9999 BKN024 24/17 Q1012 NOSIG
11:30
M
24 °C 10 km+ 2.200 ft 130° 130° 10 kt METAR LFBA 180930Z AUTO 13010KT 100V170 9999 BKN022 BKN028 24/18 Q1012 NOSIG
11:00
M
22 °C 10 km+ 2.700 ft 140° 140° 7 kt METAR LFBA 180900Z AUTO 14007KT 120V190 9999 SCT019 OVC027 22/17 Q1012 NOSIG
10:30
M
22 °C 10 km+ 1.600 ft 150° 150° 7 kt METAR LFBA 180830Z AUTO 15007KT 120V190 9999 BKN016 OVC023 22/18 Q1012 NOSIG
10:00
M
21 °C 10 km+ 1.700 ft 130° 130° 6 kt METAR LFBA 180800Z AUTO 13006KT 100V160 9999 BKN017 OVC022 21/18 Q1012 NOSIG
09:30
M
21 °C 10 km+ 1.500 ft 170° 170° 4 kt METAR LFBA 180730Z AUTO 17004KT 120V220 9999 OVC015/// ///TCU 21/17 Q1012 BECMG NSC
09:00
M
20 °C 10 km+ 1.600 ft 140° 140° 6 kt METAR LFBA 180700Z AUTO 14006KT 9999 BKN016 OVC024 20/17 Q1012 NOSIG
08:30
M
20 °C 10 km+ 2.500 ft 110° 110° 6 kt METAR LFBA 180630Z AUTO 11006KT 9999 SCT020 BKN025 20/17 Q1011 NOSIG
08:00
M
20 °C 10 km+ 2.000 ft 120° 120° 6 kt METAR LFBA 180600Z AUTO 12006KT 9999 BKN020 BKN025 20/17 Q1011 NOSIG
Wijziging doorgeven